Time;durP1;ratioP1;P1;durP2;ratioP2;P2;SDS_P1;SDS_P2;PMS_P1;PMS_P2;Temp;Humidity;BMP_temperature;BMP_pressure;BME280_temperature;BME280_humidity;BME280_pressure;Samples;Min_cycle;Max_cycle;Signal;HPM_P1;HPM_P2
2022/06/16 00:00:40;;;;;;;;;;;18.10;99.90;;;;;;5050734;28;19935;-62
2022/06/16 00:03:09;;;;;;;;;;;18.10;99.90;;;;;;5049049;28;19925;-62
2022/06/16 00:05:36;;;;;;;;;;;18.10;99.90;;;;;;5051132;28;19932;-62
2022/06/16 00:08:03;;;;;;;;;;;18.20;99.90;;;;;;5056565;28;19928;-62
2022/06/16 00:10:30;;;;;;;;;;;18.20;99.90;;;;;;5057211;28;19976;-62
2022/06/16 00:12:57;;;;;;;;;;;18.20;99.90;;;;;;5051054;28;19932;-62
2022/06/16 00:15:27;;;;;;;;;;;18.10;99.90;;;;;;5050484;28;19932;-62
2022/06/16 00:17:54;;;;;;;;;;;18.10;99.90;;;;;;5066133;28;20391;-62
2022/06/16 00:20:21;;;;;;;;;;;18.00;99.90;;;;;;5050524;28;19929;-63
2022/06/16 00:22:48;;;;;;;;;;;18.00;99.90;;;;;;5050906;28;19929;-63
2022/06/16 00:25:15;;;;;;;;;;;18.00;99.90;;;;;;5050634;28;19924;-61
2022/06/16 00:27:42;;;;;;;;;;;18.10;99.90;;;;;;5050736;28;19924;-64
2022/06/16 00:30:10;;;;;;;;;;;18.00;99.90;;;;;;5050160;28;19966;-62
2022/06/16 00:32:39;;;;;;;;;;;18.00;99.90;;;;;;5050791;28;19948;-62
2022/06/16 00:35:06;;;;;;;;;;;18.00;99.90;;;;;;5050618;28;19924;-62
2022/06/16 00:37:33;;;;;;;;;;;17.90;99.90;;;;;;5050786;28;19961;-62
2022/06/16 00:39:59;;;;;;;;;;;18.00;99.90;;;;;;5050250;28;19951;-62
2022/06/16 00:42:26;;;;;;;;;;;17.90;99.90;;;;;;5050229;28;19925;-62
2022/06/16 00:44:56;;;;;;;;;;;17.90;99.90;;;;;;5050431;28;20348;-62
2022/06/16 00:47:24;;;;;;;;;;;17.90;99.90;;;;;;5050056;28;20032;-63
2022/06/16 00:49:54;;;;;;;;;;;18.00;99.90;;;;;;5049987;28;20019;-63
2022/06/16 00:52:22;;;;;;;;;;;18.00;99.90;;;;;;5048232;28;19940;-63
2022/06/16 00:54:52;;;;;;;;;;;18.00;99.90;;;;;;5050126;28;19925;-61
2022/06/16 00:57:21;;;;;;;;;;;18.00;99.90;;;;;;5050060;28;19929;-62
2022/06/16 00:59:47;;;;;;;;;;;18.00;99.90;;;;;;5049676;28;19973;-63
2022/06/16 01:02:14;;;;;;;;;;;18.10;99.90;;;;;;5050275;28;19925;-62
2022/06/16 01:04:52;;;;;;;;;;;18.00;99.90;;;;;;5049953;28;19928;-63
2022/06/16 01:07:22;;;;;;;;;;;18.00;99.90;;;;;;5050020;28;19921;-63
2022/06/16 01:09:51;;;;;;;;;;;17.90;99.90;;;;;;5049388;28;20304;-62
2022/06/16 01:15:14;;;;;;;;;;;17.90;99.90;;;;;;5038485;28;19927;-62
2022/06/16 01:17:48;;;;;;;;;;;17.80;99.90;;;;;;5044026;28;20404;-63
2022/06/16 01:20:21;;;;;;;;;;;17.70;99.90;;;;;;5049414;28;19948;-63
2022/06/16 01:23:00;;;;;;;;;;;17.80;99.90;;;;;;5049442;28;20023;-63
2022/06/16 01:25:29;;;;;;;;;;;17.70;99.90;;;;;;5049666;28;19932;-62
2022/06/16 01:28:05;;;;;;;;;;;17.70;99.90;;;;;;5050071;28;19924;-62
2022/06/16 01:30:36;;;;;;;;;;;17.80;99.90;;;;;;5049030;28;19932;-62
2022/06/16 01:33:05;;;;;;;;;;;17.70;99.90;;;;;;5049540;28;19925;-62
2022/06/16 01:35:36;;;;;;;;;;;17.70;99.90;;;;;;5048979;28;19924;-63
2022/06/16 01:38:07;;;;;;;;;;;17.70;99.90;;;;;;5048978;28;20316;-62
2022/06/16 01:40:38;;;;;;;;;;;17.70;99.90;;;;;;5042184;28;19925;-63
2022/06/16 01:43:08;;;;;;;;;;;17.70;99.90;;;;;;5049510;28;19925;-62
2022/06/16 01:45:41;;;;;;;;;;;17.70;99.90;;;;;;5048549;28;19925;-63
2022/06/16 01:48:14;;;;;;;;;;;17.70;99.90;;;;;;5049213;28;19925;-63
2022/06/16 01:50:44;;;;;;;;;;;17.60;99.90;;;;;;5048777;28;20001;-62
2022/06/16 01:53:14;;;;;;;;;;;17.60;99.90;;;;;;5049458;28;20343;-62
2022/06/16 01:55:41;;;;;;;;;;;17.50;99.90;;;;;;5048566;28;19929;-63
2022/06/16 01:58:11;;;;;;;;;;;17.50;99.90;;;;;;5049252;28;19936;-63
2022/06/16 02:00:40;;;;;;;;;;;17.50;99.90;;;;;;5048715;28;19979;-62
2022/06/16 02:03:09;;;;;;;;;;;17.50;99.90;;;;;;5049141;28;20656;-63
2022/06/16 02:05:37;;;;;;;;;;;17.50;99.90;;;;;;5043779;28;19932;-62
2022/06/16 02:08:05;;;;;;;;;;;17.40;99.90;;;;;;5049212;28;20002;-61
2022/06/16 02:10:34;;;;;;;;;;;17.40;99.90;;;;;;5049005;28;20479;-63
2022/06/16 02:13:05;;;;;;;;;;;17.40;99.90;;;;;;5049272;28;19931;-62
2022/06/16 02:15:46;;;;;;;;;;;17.30;99.90;;;;;;5049522;28;19925;-62
2022/06/16 02:18:15;;;;;;;;;;;17.20;99.90;;;;;;5046857;28;20380;-63
2022/06/16 02:20:49;;;;;;;;;;;17.20;99.90;;;;;;5048969;28;19978;-62
2022/06/16 02:23:16;;;;;;;;;;;17.10;99.90;;;;;;5047475;28;19931;-62
2022/06/16 02:25:44;;;;;;;;;;;17.00;99.90;;;;;;5048910;28;20015;-63
2022/06/16 02:28:12;;;;;;;;;;;17.00;99.90;;;;;;5049007;28;20002;-62
2022/06/16 02:30:43;;;;;;;;;;;16.90;99.90;;;;;;5048864;28;20308;-62
2022/06/16 02:33:17;;;;;;;;;;;16.90;99.90;;;;;;5048849;28;19929;-62
2022/06/16 02:35:51;;;;;;;;;;;17.00;99.90;;;;;;5048650;28;19924;-63
2022/06/16 02:38:26;;;;;;;;;;;16.90;99.90;;;;;;5048160;28;19955;-63
2022/06/16 02:40:59;;;;;;;;;;;16.90;99.90;;;;;;5048726;28;19924;-63
2022/06/16 02:43:44;;;;;;;;;;;16.90;99.90;;;;;;5048690;28;20328;-62
2022/06/16 02:46:13;;;;;;;;;;;16.80;99.90;;;;;;5046321;28;19931;-62
2022/06/16 02:48:46;;;;;;;;;;;16.90;99.90;;;;;;5048595;28;20319;-63
2022/06/16 02:51:16;;;;;;;;;;;16.90;99.90;;;;;;5048575;28;19932;-62
2022/06/16 02:53:47;;;;;;;;;;;16.80;99.90;;;;;;5048635;28;19929;-63
2022/06/16 02:56:18;;;;;;;;;;;16.60;99.90;;;;;;5048341;28;19925;-62
2022/06/16 02:58:45;;;;;;;;;;;16.50;99.90;;;;;;5059224;28;19925;-62
2022/06/16 03:01:13;;;;;;;;;;;16.40;99.90;;;;;;5048493;28;19925;-63
2022/06/16 03:03:40;;;;;;;;;;;16.30;99.90;;;;;;5048499;28;19928;-62
2022/06/16 03:06:13;;;;;;;;;;;16.30;99.90;;;;;;5048889;28;20384;-63
2022/06/16 03:08:49;;;;;;;;;;;16.10;99.90;;;;;;5052080;28;19959;-62
2022/06/16 03:11:16;;;;;;;;;;;16.10;99.90;;;;;;5052169;28;19964;-62
2022/06/16 03:13:44;;;;;;;;;;;16.10;99.90;;;;;;5047900;28;19935;-62
2022/06/16 03:16:23;;;;;;;;;;;16.10;99.90;;;;;;5052439;28;19936;-63
2022/06/16 03:18:51;;;;;;;;;;;16.10;99.90;;;;;;5051792;28;19925;-62
2022/06/16 03:21:19;;;;;;;;;;;16.00;99.90;;;;;;5052076;28;19925;-63
2022/06/16 03:23:46;;;;;;;;;;;16.00;99.90;;;;;;5049715;28;19964;-63
2022/06/16 03:26:15;;;;;;;;;;;16.00;99.90;;;;;;5051861;28;20386;-61
2022/06/16 03:28:42;;;;;;;;;;;15.90;99.90;;;;;;5051493;28;19939;-63
2022/06/16 03:31:13;;;;;;;;;;;15.90;99.90;;;;;;5051841;28;20019;-62
2022/06/16 03:33:40;;;;;;;;;;;15.90;99.90;;;;;;5051606;28;19929;-62
2022/06/16 03:36:07;;;;;;;;;;;15.80;99.90;;;;;;5048991;28;19924;-63
2022/06/16 03:38:41;;;;;;;;;;;15.70;99.90;;;;;;5044585;28;20418;-64
2022/06/16 03:41:09;;;;;;;;;;;15.70;99.90;;;;;;5051179;28;19936;-63
2022/06/16 03:43:36;;;;;;;;;;;15.70;99.90;;;;;;5051687;28;20392;-62
2022/06/16 03:46:23;;;;;;;;;;;15.60;99.90;;;;;;5052196;28;19979;-61
2022/06/16 03:48:59;;;;;;;;;;;15.60;99.90;;;;;;5046177;28;19925;-62
2022/06/16 03:51:40;;;;;;;;;;;15.60;99.90;;;;;;5051918;28;19928;-62
2022/06/16 03:54:09;;;;;;;;;;;15.50;99.90;;;;;;5051540;28;19932;-61
2022/06/16 03:56:36;;;;;;;;;;;15.40;99.90;;;;;;5051430;28;19932;-63
2022/06/16 03:59:07;;;;;;;;;;;15.40;99.90;;;;;;5051119;28;19925;-61
2022/06/16 04:01:34;;;;;;;;;;;15.40;99.90;;;;;;5049893;28;20308;-63
2022/06/16 04:04:01;;;;;;;;;;;15.30;99.90;;;;;;5051410;28;19978;-63
2022/06/16 04:06:42;;;;;;;;;;;15.40;99.90;;;;;;5051518;28;20395;-61
2022/06/16 04:09:10;;;;;;;;;;;15.40;99.90;;;;;;5051037;28;20019;-61
2022/06/16 04:11:38;;;;;;;;;;;15.40;99.90;;;;;;5051157;28;19990;-62
2022/06/16 04:14:10;;;;;;;;;;;15.30;99.90;;;;;;5050926;28;19925;-62
2022/06/16 04:16:45;;;;;;;;;;;15.30;99.90;;;;;;5064576;28;20380;-63
2022/06/16 04:19:16;;;;;;;;;;;15.30;99.90;;;;;;5050371;28;19931;-62
2022/06/16 04:21:44;;;;;;;;;;;15.30;99.90;;;;;;5051216;28;19933;-62
2022/06/16 04:24:22;;;;;;;;;;;15.30;99.90;;;;;;5051042;28;19935;-64
2022/06/16 04:26:51;;;;;;;;;;;15.40;99.90;;;;;;5050917;28;19925;-62
2022/06/16 04:29:19;;;;;;;;;;;15.30;99.90;;;;;;5050746;28;20419;-62
2022/06/16 04:31:46;;;;;;;;;;;15.40;99.90;;;;;;5057048;28;20010;-61
2022/06/16 04:34:13;;;;;;;;;;;15.40;99.90;;;;;;5050500;28;20023;-62
2022/06/16 04:36:41;;;;;;;;;;;;;;;;;;5058471;28;19929;-62
2022/06/16 04:39:14;;;;;;;;;;;15.40;99.90;;;;;;5046469;28;20388;-62
2022/06/16 04:41:46;;;;;;;;;;;15.40;99.90;;;;;;5057804;28;20308;-62
2022/06/16 04:44:15;;;;;;;;;;;15.40;99.90;;;;;;5048889;28;20027;-62
2022/06/16 04:46:44;;;;;;;;;;;15.40;99.90;;;;;;5050785;28;19975;-62
2022/06/16 04:49:13;;;;;;;;;;;15.50;99.90;;;;;;5050428;28;19932;-61
2022/06/16 04:51:44;;;;;;;;;;;15.60;99.90;;;;;;5050508;28;19925;-62
2022/06/16 04:54:12;;;;;;;;;;;15.60;99.90;;;;;;5050077;28;19925;-63
2022/06/16 04:56:48;;;;;;;;;;;15.70;99.90;;;;;;5044848;28;19974;-63
2022/06/16 04:59:44;;;;;;;;;;;15.70;99.90;;;;;;5042297;28;19992;-62
2022/06/16 05:02:26;;;;;;;;;;;15.70;99.90;;;;;;5046488;28;19998;-62
2022/06/16 05:05:02;;;;;;;;;;;15.70;99.90;;;;;;5049116;28;19935;-61
2022/06/16 05:07:49;;;;;;;;;;;15.70;99.90;;;;;;5051298;28;19978;-62
2022/06/16 05:10:42;;;;;;;;;;;15.80;99.90;;;;;;5042433;28;19932;-62
2022/06/16 05:13:23;;;;;;;;;;;15.90;99.90;;;;;;5050117;28;20380;-62
2022/06/16 05:16:22;;;;;;;;;;;15.90;99.90;;;;;;5007090;28;19948;-61
2022/06/16 05:19:11;;;;;;;;;;;16.00;99.90;;;;;;5049828;28;19951;-62
2022/06/16 05:22:01;;;;;;;;;;;16.10;99.90;;;;;;5050236;28;19963;-61
2022/06/16 05:24:56;;;;;;;;;;;16.20;99.90;;;;;;5049232;28;19925;-57
2022/06/16 05:27:37;;;;;;;;;;;16.10;99.90;;;;;;5042772;28;19925;-63
2022/06/16 05:30:35;;;;;;;;;;;16.20;99.90;;;;;;5046698;28;19925;-63
2022/06/16 05:33:21;;;;;;;;;;;16.20;99.90;;;;;;5049050;28;20408;-62
2022/06/16 05:36:13;;;;;;;;;;;16.30;99.90;;;;;;5049770;28;19925;-64
2022/06/16 05:38:49;;;;;;;;;;;16.40;99.90;;;;;;5049483;28;19929;-61
2022/06/16 05:41:32;;;;;;;;;;;16.40;99.90;;;;;;5049405;28;20014;-63
2022/06/16 05:44:11;;;;;;;;;;;16.40;99.90;;;;;;5049892;28;20400;-63
2022/06/16 05:46:52;;;;;;;;;;;16.50;99.90;;;;;;5040147;28;20320;-64
2022/06/16 05:49:25;;;;;;;;;;;16.50;99.90;;;;;;5045594;28;19939;-65
2022/06/16 05:51:55;;;;;;;;;;;16.60;99.90;;;;;;5049476;28;19929;-63
2022/06/16 05:54:29;;;;;;;;;;;16.60;99.90;;;;;;5048499;28;20442;-63
2022/06/16 05:56:56;;;;;;;;;;;16.60;99.90;;;;;;5049444;28;19983;-63
2022/06/16 05:59:23;;;;;;;;;;;16.60;99.90;;;;;;5048862;28;19990;-63
2022/06/16 06:01:53;;;;;;;;;;;16.60;99.90;;;;;;5049311;28;20028;-63
2022/06/16 06:04:19;;;;;;;;;;;16.80;99.90;;;;;;5049339;28;19925;-63
2022/06/16 06:06:47;;;;;;;;;;;16.80;99.90;;;;;;5049331;28;19929;-62
2022/06/16 06:17:36;;;;;;;;;;;17.10;99.90;;;;;;5049693;28;20384;-64
2022/06/16 06:20:04;;;;;;;;;;;17.20;99.90;;;;;;5048541;28;19924;-63
2022/06/16 06:22:31;;;;;;;;;;;17.30;99.90;;;;;;5048319;28;19925;-63
2022/06/16 06:25:12;;;;;;;;;;;17.30;99.90;;;;;;5047402;28;20319;-63
2022/06/16 06:27:40;;;;;;;;;;;17.30;99.90;;;;;;5048473;28;19979;-64
2022/06/16 06:30:10;;;;;;;;;;;17.40;99.90;;;;;;5048158;28;20015;-64
2022/06/16 06:32:39;;;;;;;;;;;17.50;99.90;;;;;;5051747;28;19925;-63
2022/06/16 06:35:06;;;;;;;;;;;17.60;99.90;;;;;;5048719;28;19925;-63
2022/06/16 06:37:33;;;;;;;;;;;17.60;99.90;;;;;;5043231;28;19932;-63
2022/06/16 06:40:00;;;;;;;;;;;17.70;99.90;;;;;;5045746;28;19960;-61
2022/06/16 06:42:27;;;;;;;;;;;17.80;99.90;;;;;;5051490;28;19937;-63
2022/06/16 06:44:56;;;;;;;;;;;17.80;99.90;;;;;;5052752;28;20019;-64
2022/06/16 06:47:24;;;;;;;;;;;17.90;99.90;;;;;;5052864;28;19925;-63
2022/06/16 06:49:53;;;;;;;;;;;18.00;99.90;;;;;;5052926;28;19979;-63
2022/06/16 06:52:20;;;;;;;;;;;18.10;99.90;;;;;;5051668;28;19932;-62
2022/06/16 06:54:47;;;;;;;;;;;18.10;99.90;;;;;;5053344;28;19924;-63
2022/06/16 06:57:16;;;;;;;;;;;18.20;99.90;;;;;;5053444;28;19978;-62
2022/06/16 06:59:43;;;;;;;;;;;18.20;99.90;;;;;;5053226;28;19924;-63
2022/06/16 07:02:11;;;;;;;;;;;18.30;99.90;;;;;;5053418;28;19931;-62
2022/06/16 07:04:38;;;;;;;;;;;18.40;99.90;;;;;;5053538;28;19968;-65
2022/06/16 07:07:07;;;;;;;;;;;18.50;99.90;;;;;;5053699;28;20269;-64
2022/06/16 07:09:33;;;;;;;;;;;18.50;99.90;;;;;;5053259;28;19971;-65
2022/06/16 07:12:00;;;;;;;;;;;18.60;99.90;;;;;;5049533;28;19936;-64
2022/06/16 07:14:29;;;;;;;;;;;18.60;99.90;;;;;;5053030;28;19932;-64
2022/06/16 07:16:56;;;;;;;;;;;18.70;99.90;;;;;;5049845;28;20397;-64
2022/06/16 07:19:23;;;;;;;;;;;18.80;99.90;;;;;;5052684;28;19925;-64
2022/06/16 07:21:49;;;;;;;;;;;18.90;99.90;;;;;;5053408;28;19925;-64
2022/06/16 07:24:18;;;;;;;;;;;18.90;99.90;;;;;;5052547;28;19924;-64
2022/06/16 07:26:44;;;;;;;;;;;18.90;99.90;;;;;;5053061;28;19928;-64
2022/06/16 07:29:11;;;;;;;;;;;19.00;99.90;;;;;;5049135;28;19978;-63
2022/06/16 07:31:38;;;;;;;;;;;19.00;99.90;;;;;;5052069;28;20276;-64
2022/06/16 07:34:05;;;;;;;;;;;19.20;99.90;;;;;;5051074;28;19924;-63
2022/06/16 07:36:32;;;;;;;;;;;19.20;99.90;;;;;;5052648;28;20392;-64
2022/06/16 07:38:58;;;;;;;;;;;19.30;99.90;;;;;;5052555;28;19928;-64
2022/06/16 07:41:35;;;;;;;;;;;19.30;99.90;;;;;;5052704;28;19975;-63
2022/06/16 07:44:04;;;;;;;;;;;19.30;99.90;;;;;;5052688;28;19928;-63
2022/06/16 07:46:31;;;;;;;;;;;19.30;99.90;;;;;;5050269;28;20384;-64
2022/06/16 07:48:57;;;;;;;;;;;19.30;99.90;;;;;;5047522;28;19925;-64
2022/06/16 07:51:24;;;;;;;;;;;19.30;99.90;;;;;;5052648;28;19929;-64
2022/06/16 07:53:51;;;;;;;;;;;19.40;99.90;;;;;;5051231;28;19925;-68
2022/06/16 07:56:20;;;;;;;;;;;19.50;99.90;;;;;;5048242;28;19971;-65
2022/06/16 07:58:48;;;;;;;;;;;19.70;99.90;;;;;;5042137;28;20400;-66
2022/06/16 08:01:15;;;;;;;;;;;19.80;99.90;;;;;;5042727;28;20396;-65
2022/06/16 08:03:42;;;;;;;;;;;19.70;99.90;;;;;;5039249;28;19979;-64
2022/06/16 08:06:15;;;;;;;;;;;19.80;99.90;;;;;;5040336;28;19926;-65
2022/06/16 08:08:43;;;;;;;;;;;19.70;99.90;;;;;;5051367;28;19933;-63
2022/06/16 08:12:03;;;;;;;;;;;19.60;99.90;;;;;;5050849;28;20304;-65
2022/06/16 08:14:00;;;;;;;;;;;19.70;99.90;;;;;;5050181;28;19925;-65
2022/06/16 08:16:27;;;;;;;;;;;19.70;99.90;;;;;;5050250;28;19928;-64
2022/06/16 08:18:54;;;;;;;;;;;19.90;99.90;;;;;;5050533;28;19947;-65
2022/06/16 08:21:20;;;;;;;;;;;19.80;99.90;;;;;;5050698;28;19944;-64
2022/06/16 08:23:47;;;;;;;;;;;19.90;99.90;;;;;;5050597;28;20366;-63
2022/06/16 08:26:14;;;;;;;;;;;20.00;99.90;;;;;;5050898;28;19925;-64
2022/06/16 08:28:41;;;;;;;;;;;20.00;99.90;;;;;;5051278;28;20404;-65
2022/06/16 08:31:09;;;;;;;;;;;20.10;99.90;;;;;;5050848;28;19925;-63
2022/06/16 08:33:37;;;;;;;;;;;20.00;99.90;;;;;;5050878;28;19953;-72
2022/06/16 08:36:04;;;;;;;;;;;20.00;99.90;;;;;;5050927;28;19925;-73
2022/06/16 08:38:30;;;;;;;;;;;20.00;99.90;;;;;;5050617;28;19925;-73
2022/06/16 08:41:12;;;;;;;;;;;20.20;99.90;;;;;;5050627;28;19924;-69
2022/06/16 08:43:43;;;;;;;;;;;20.10;99.90;;;;;;5050332;28;20029;-74
2022/06/16 08:46:15;;;;;;;;;;;20.00;99.90;;;;;;5050600;28;19933;-63
2022/06/16 08:48:45;;;;;;;;;;;20.00;99.90;;;;;;5047634;28;19928;-65
2022/06/16 08:51:14;;;;;;;;;;;20.20;99.90;;;;;;5050064;28;19974;-65
2022/06/16 08:54:02;;;;;;;;;;;20.20;99.90;;;;;;5050275;28;19924;-63
2022/06/16 08:56:31;;;;;;;;;;;20.20;99.90;;;;;;5044890;28;20299;-68
2022/06/16 08:59:03;;;;;;;;;;;20.30;99.90;;;;;;5049974;28;19929;-67
2022/06/16 09:01:34;;;;;;;;;;;20.30;99.90;;;;;;5045612;28;19925;-63
2022/06/16 09:04:02;;;;;;;;;;;20.30;99.90;;;;;;5049058;28;19979;-64
2022/06/16 09:06:32;;;;;;;;;;;20.50;99.90;;;;;;5059743;28;19925;-64
2022/06/16 09:09:02;;;;;;;;;;;20.60;99.90;;;;;;5049454;28;19974;-64
2022/06/16 09:11:32;;;;;;;;;;;20.60;99.90;;;;;;5049002;28;20058;-64
2022/06/16 09:14:09;;;;;;;;;;;20.70;99.90;;;;;;5049891;28;20457;-63
2022/06/16 09:16:41;;;;;;;;;;;20.70;99.90;;;;;;5042360;28;19925;-64
2022/06/16 09:19:20;;;;;;;;;;;20.60;99.90;;;;;;5049623;28;19925;-64
2022/06/16 09:21:50;;;;;;;;;;;20.80;99.90;;;;;;5050083;28;20388;-63
2022/06/16 09:24:35;;;;;;;;;;;21.00;99.90;;;;;;5049509;28;19937;-65
2022/06/16 09:27:04;;;;;;;;;;;20.90;99.90;;;;;;5049742;28;19928;-63
2022/06/16 09:29:33;;;;;;;;;;;20.90;99.90;;;;;;5049085;28;19955;-63
2022/06/16 09:32:03;;;;;;;;;;;21.00;99.90;;;;;;5049751;28;20328;-63
2022/06/16 09:34:34;;;;;;;;;;;21.10;99.90;;;;;;5048657;28;20355;-63
2022/06/16 09:37:03;;;;;;;;;;;21.30;99.90;;;;;;5048293;28;19925;-64
2022/06/16 09:39:34;;;;;;;;;;;21.50;99.90;;;;;;5048686;28;19982;-63
2022/06/16 09:44:54;;;;;;;;;;;21.60;99.90;;;;;;5047146;28;20403;-63
2022/06/16 09:47:26;;;;;;;;;;;21.90;99.90;;;;;;5049771;28;19924;-63
2022/06/16 09:49:55;;;;;;;;;;;22.10;99.90;;;;;;5049224;28;19928;-63
2022/06/16 09:52:24;;;;;;;;;;;22.30;99.90;;;;;;5049406;28;19925;-63
2022/06/16 09:54:52;;;;;;;;;;;22.00;99.90;;;;;;5049002;28;20377;-63
2022/06/16 09:57:23;;;;;;;;;;;21.80;99.90;;;;;;5048953;28;19925;-64
2022/06/16 09:59:53;;;;;;;;;;;21.90;99.90;;;;;;5048804;28;20031;-63
2022/06/16 10:02:21;;;;;;;;;;;22.00;99.90;;;;;;5048967;28;19924;-63
2022/06/16 10:04:51;;;;;;;;;;;21.80;99.90;;;;;;5046322;28;19925;-63
2022/06/16 10:07:22;;;;;;;;;;;22.00;99.90;;;;;;5049760;28;19931;-65
2022/06/16 10:09:51;;;;;;;;;;;22.10;99.90;;;;;;5048158;28;19960;-63
2022/06/16 10:12:20;;;;;;;;;;;22.20;99.90;;;;;;5049313;28;19933;-63
2022/06/16 10:14:49;;;;;;;;;;;22.30;99.90;;;;;;5048941;28;19925;-64
2022/06/16 10:17:18;;;;;;;;;;;22.40;99.90;;;;;;5051829;28;19925;-65
2022/06/16 10:19:46;;;;;;;;;;;22.50;99.90;;;;;;5053068;28;19933;-63
2022/06/16 10:22:13;;;;;;;;;;;;;;;;;;5048978;28;19929;-64
2022/06/16 10:24:44;;;;;;;;;;;22.90;99.90;;;;;;5053167;28;19925;-65
2022/06/16 10:27:13;;;;;;;;;;;23.20;99.90;;;;;;5053283;28;19971;-64
2022/06/16 10:29:50;;;;;;;;;;;23.10;99.90;;;;;;5071626;22;20327;-65
2022/06/16 10:32:17;;;;;;;;;;;23.10;99.90;;;;;;5033058;28;20024;-65
2022/06/16 10:34:44;;;;;;;;;;;22.80;99.90;;;;;;5045676;28;19925;-66
2022/06/16 10:37:13;;;;;;;;;;;22.70;99.90;;;;;;5036019;28;19953;-67
2022/06/16 10:39:44;;;;;;;;;;;22.70;99.90;;;;;;5030690;28;19969;-65
2022/06/16 10:42:16;;;;;;;;;;;22.70;99.90;;;;;;5045438;28;20388;-66
2022/06/16 10:44:49;;;;;;;;;;;22.60;99.90;;;;;;5038841;28;19933;-66
2022/06/16 10:47:18;;;;;;;;;;;22.60;99.90;;;;;;5044277;28;19925;-66
2022/06/16 10:49:46;;;;;;;;;;;22.80;99.90;;;;;;5027589;28;20462;-66
2022/06/16 10:52:14;;;;;;;;;;;22.80;99.90;;;;;;5027193;28;19983;-66
2022/06/16 10:54:45;;;;;;;;;;;22.80;99.90;;;;;;5038523;28;19929;-65
2022/06/16 10:57:18;;;;;;;;;;;23.00;99.90;;;;;;5048398;28;19925;-66
2022/06/16 10:59:47;;;;;;;;;;;23.00;99.90;;;;;;5028712;28;20020;-66
2022/06/16 11:02:16;;;;;;;;;;;23.20;99.90;;;;;;5032730;28;19975;-65
2022/06/16 11:04:44;;;;;;;;;;;23.50;99.90;;;;;;5031873;28;19929;-66
2022/06/16 11:07:12;;;;;;;;;;;23.60;99.90;;;;;;5029544;28;20389;-66
2022/06/16 11:09:39;;;;;;;;;;;23.50;99.90;;;;;;5024197;28;19971;-66
2022/06/16 11:12:14;;;;;;;;;;;23.60;99.90;;;;;;5029501;28;19929;-66
2022/06/16 11:14:42;;;;;;;;;;;23.60;99.90;;;;;;5046715;28;19972;-66
2022/06/16 11:17:10;;;;;;;;;;;23.70;99.90;;;;;;5026655;28;19929;-66
2022/06/16 11:19:42;;;;;;;;;;;24.00;99.90;;;;;;5033093;28;19929;-66
2022/06/16 11:22:14;;;;;;;;;;;24.30;99.90;;;;;;5043054;28;19925;-66
2022/06/16 11:24:52;;;;;;;;;;;24.50;99.90;;;;;;5038084;28;20352;-66
2022/06/16 11:27:19;;;;;;;;;;;;;;;;;;5029442;28;19980;-66
2022/06/16 11:29:47;;;;;;;;;;;24.60;99.90;;;;;;5028643;28;19925;-65
2022/06/16 11:32:19;;;;;;;;;;;25.30;99.90;;;;;;5032167;28;19929;-66
2022/06/16 11:34:47;;;;;;;;;;;25.30;99.90;;;;;;5048220;28;19925;-67
2022/06/16 11:37:27;;;;;;;;;;;25.10;99.90;;;;;;5029512;28;20415;-67
2022/06/16 11:40:00;;;;;;;;;;;25.50;99.90;;;;;;5030294;28;19933;-67
2022/06/16 11:42:34;;;;;;;;;;;26.40;99.90;;;;;;5029367;28;19932;-67
2022/06/16 11:45:05;;;;;;;;;;;27.10;99.90;;;;;;5035554;28;19925;-67
2022/06/16 11:47:41;;;;;;;;;;;27.90;99.90;;;;;;5047875;28;20381;-67
2022/06/16 11:50:11;;;;;;;;;;;28.20;99.90;;;;;;5044836;28;19929;-67
2022/06/16 11:52:42;;;;;;;;;;;28.50;99.90;;;;;;5046003;28;19932;-67
2022/06/16 11:55:12;;;;;;;;;;;29.20;99.90;;;;;;5023786;28;19925;-67
2022/06/16 11:57:43;;;;;;;;;;;29.50;99.90;;;;;;5025929;28;20379;-67
2022/06/16 12:00:18;;;;;;;;;;;30.30;99.90;;;;;;5027493;28;19955;-64
2022/06/16 12:03:07;;;;;;;;;;;31.90;99.90;;;;;;5037102;28;20016;-66
2022/06/16 12:05:38;;;;;;;;;;;32.20;99.90;;;;;;5028367;28;19936;-66
2022/06/16 12:08:13;;;;;;;;;;;32.30;99.90;;;;;;5047643;28;19925;-66
2022/06/16 12:10:42;;;;;;;;;;;32.50;99.90;;;;;;5048773;28;19933;-66
2022/06/16 12:13:11;;;;;;;;;;;33.10;99.90;;;;;;5025877;28;20384;-64
2022/06/16 12:15:44;;;;;;;;;;;33.40;99.90;;;;;;5038998;28;20355;-64
2022/06/16 12:18:18;;;;;;;;;;;34.20;99.90;;;;;;5033490;28;20420;-64
2022/06/16 12:20:54;;;;;;;;;;;34.10;99.90;;;;;;5030042;28;20351;-67
2022/06/16 12:23:25;;;;;;;;;;;33.90;99.90;;;;;;5034042;28;19971;-67
2022/06/16 12:25:54;;;;;;;;;;;33.30;99.00;;;;;;5021181;28;19980;-65
2022/06/16 12:28:25;;;;;;;;;;;33.30;99.20;;;;;;5039079;28;19925;-67
2022/06/16 12:30:55;;;;;;;;;;;33.30;99.20;;;;;;5039926;28;19983;-65
2022/06/16 12:33:27;;;;;;;;;;;32.90;99.10;;;;;;5026770;28;19929;-63
2022/06/16 12:35:57;;;;;;;;;;;33.50;99.40;;;;;;5026491;28;19979;-64
2022/06/16 12:38:26;;;;;;;;;;;33.90;99.10;;;;;;5030497;28;20363;-64
2022/06/16 12:40:53;;;;;;;;;;;33.60;98.50;;;;;;5030208;28;20265;-65
2022/06/16 12:43:24;;;;;;;;;;;33.40;98.50;;;;;;5026298;28;20347;-64
2022/06/16 12:45:54;;;;;;;;;;;33.70;98.30;;;;;;5028544;28;19971;-64
2022/06/16 12:48:24;;;;;;;;;;;34.00;97.80;;;;;;5032429;28;19925;-64
2022/06/16 12:50:52;;;;;;;;;;;34.50;98.60;;;;;;5025738;28;19976;-64
2022/06/16 12:53:22;;;;;;;;;;;35.10;97.90;;;;;;5030722;28;19929;-65
2022/06/16 12:55:49;;;;;;;;;;;;;;;;;;5024037;28;19951;-64
2022/06/16 12:58:19;;;;;;;;;;;36.40;99.90;;;;;;5029065;28;19925;-64
2022/06/16 13:00:49;;;;;;;;;;;35.50;99.90;;;;;;5043029;28;20470;-65
2022/06/16 13:03:24;;;;;;;;;;;35.50;99.90;;;;;;5038911;28;19971;-64
2022/06/16 13:05:54;;;;;;;;;;;35.20;99.90;;;;;;5033275;28;19925;-64
2022/06/16 13:08:22;;;;;;;;;;;35.40;99.90;;;;;;5029454;28;19925;-64
2022/06/16 13:10:51;;;;;;;;;;;34.80;99.90;;;;;;5026661;28;19925;-64
2022/06/16 13:13:22;;;;;;;;;;;34.00;99.90;;;;;;5029464;28;19929;-64
2022/06/16 13:15:53;;;;;;;;;;;34.40;99.90;;;;;;5035545;28;19929;-64
2022/06/16 13:18:22;;;;;;;;;;;34.10;99.90;;;;;;5037555;28;19977;-64
2022/06/16 13:20:51;;;;;;;;;;;34.30;99.90;;;;;;5035822;28;19929;-64
2022/06/16 13:23:28;;;;;;;;;;;35.00;99.90;;;;;;5036680;28;19925;-64
2022/06/16 13:25:56;;;;;;;;;;;35.60;99.90;;;;;;5045259;28;19925;-65
2022/06/16 13:28:27;;;;;;;;;;;36.00;99.90;;;;;;5045835;28;19933;-65
2022/06/16 13:30:59;;;;;;;;;;;35.00;99.90;;;;;;5029658;28;19929;-65
2022/06/16 13:33:33;;;;;;;;;;;34.70;99.90;;;;;;5028792;28;21474;-65
2022/06/16 13:36:11;;;;;;;;;;;35.10;99.90;;;;;;5036382;28;20446;-65
2022/06/16 13:38:41;;;;;;;;;;;35.20;99.90;;;;;;5044216;28;20342;-65
2022/06/16 13:41:29;;;;;;;;;;;35.10;99.90;;;;;;5023426;28;20380;-65
2022/06/16 13:44:06;;;;;;;;;;;34.40;99.90;;;;;;5031375;28;19978;-65
2022/06/16 13:46:47;;;;;;;;;;;34.50;99.90;;;;;;5021742;28;20446;-65
2022/06/16 13:49:25;;;;;;;;;;;35.00;99.90;;;;;;5030775;28;19928;-65
2022/06/16 13:51:52;;;;;;;;;;;35.60;99.90;;;;;;5028144;28;19925;-65
2022/06/16 13:54:29;;;;;;;;;;;35.80;99.90;;;;;;5027998;28;19970;-65
2022/06/16 13:56:56;;;;;;;;;;;35.50;99.90;;;;;;5040581;28;19926;-65
2022/06/16 13:59:30;;;;;;;;;;;34.80;99.90;;;;;;5023920;28;19964;-65
2022/06/16 14:02:02;;;;;;;;;;;34.00;99.90;;;;;;5029619;28;19929;-65
2022/06/16 14:04:29;;;;;;;;;;;34.10;99.90;;;;;;5028611;28;20399;-65
2022/06/16 14:06:56;;;;;;;;;;;;;;;;;;5034457;28;19975;-65
2022/06/16 14:09:26;;;;;;;;;;;32.70;99.90;;;;;;5041827;28;19933;-65
2022/06/16 14:12:09;;;;;;;;;;;32.00;96.30;;;;;;5029002;28;19983;-65
2022/06/16 14:14:51;;;;;;;;;;;32.00;96.20;;;;;;5028161;28;19929;-65
2022/06/16 14:17:26;;;;;;;;;;;31.80;96.30;;;;;;5027671;28;19925;-64
2022/06/16 14:19:54;;;;;;;;;;;32.50;96.80;;;;;;5041715;28;19929;-64
2022/06/16 14:22:22;;;;;;;;;;;32.50;97.10;;;;;;5025992;28;19980;-65
2022/06/16 14:24:57;;;;;;;;;;;33.40;99.90;;;;;;5025234;28;20332;-65
2022/06/16 14:27:26;;;;;;;;;;;34.10;99.90;;;;;;5023782;28;19925;-64
2022/06/16 14:29:54;;;;;;;;;;;34.70;99.40;;;;;;5022531;28;19929;-65
2022/06/16 14:32:24;;;;;;;;;;;34.90;99.60;;;;;;5027246;28;19925;-64
2022/06/16 14:34:56;;;;;;;;;;;35.20;96.70;;;;;;5023937;28;20290;-64
2022/06/16 14:37:26;;;;;;;;;;;35.50;95.00;;;;;;5045738;28;19937;-64
2022/06/16 14:39:56;;;;;;;;;;;36.00;95.60;;;;;;5020828;28;20363;-65
2022/06/16 14:42:27;;;;;;;;;;;36.60;95.50;;;;;;5039872;28;19976;-64
2022/06/16 14:44:55;;;;;;;;;;;37.30;95.00;;;;;;5038626;28;19976;-65
2022/06/16 14:47:28;;;;;;;;;;;37.10;95.10;;;;;;5023663;28;20388;-64
2022/06/16 14:49:56;;;;;;;;;;;36.70;93.80;;;;;;5033575;28;19932;-65
2022/06/16 14:52:25;;;;;;;;;;;36.50;94.30;;;;;;5021635;28;19937;-65
2022/06/16 14:54:53;;;;;;;;;;;35.80;95.00;;;;;;5031969;28;19932;-65